sensor_id;sensor_type;location;lat;lon;timestamp;P1;durP1;ratioP1;P2;durP2;ratioP2
1925;SDS011;964;42.606;23.588;2022-07-03T00:00:40;8.17;;;6.83;;
1925;SDS011;964;42.606;23.588;2022-07-03T00:03:06;8.40;;;7.47;;
1925;SDS011;964;42.606;23.588;2022-07-03T00:05:34;8.30;;;6.90;;
1925;SDS011;964;42.606;23.588;2022-07-03T00:08:01;9.30;;;8.40;;
1925;SDS011;964;42.606;23.588;2022-07-03T00:10:29;7.20;;;6.50;;
1925;SDS011;964;42.606;23.588;2022-07-03T00:12:56;7.13;;;6.43;;
1925;SDS011;964;42.606;23.588;2022-07-03T00:15:24;7.40;;;6.43;;
1925;SDS011;964;42.606;23.588;2022-07-03T00:17:51;8.57;;;7.33;;
1925;SDS011;964;42.606;23.588;2022-07-03T00:20:17;8.77;;;7.60;;
1925;SDS011;964;42.606;23.588;2022-07-03T00:22:45;7.97;;;7.27;;
1925;SDS011;964;42.606;23.588;2022-07-03T00:25:13;8.47;;;6.90;;
1925;SDS011;964;42.606;23.588;2022-07-03T00:27:40;9.07;;;6.30;;
1925;SDS011;964;42.606;23.588;2022-07-03T00:30:11;11.97;;;7.10;;
1925;SDS011;964;42.606;23.588;2022-07-03T00:32:39;7.83;;;6.97;;
1925;SDS011;964;42.606;23.588;2022-07-03T00:35:08;9.93;;;7.90;;
1925;SDS011;964;42.606;23.588;2022-07-03T00:37:35;8.10;;;7.30;;
1925;SDS011;964;42.606;23.588;2022-07-03T00:40:02;8.43;;;7.17;;
1925;SDS011;964;42.606;23.588;2022-07-03T00:42:30;8.00;;;7.20;;
1925;SDS011;964;42.606;23.588;2022-07-03T00:44:57;15.57;;;6.90;;
1925;SDS011;964;42.606;23.588;2022-07-03T00:47:26;8.53;;;7.57;;
1925;SDS011;964;42.606;23.588;2022-07-03T00:49:55;7.43;;;6.73;;
1925;SDS011;964;42.606;23.588;2022-07-03T00:52:23;6.53;;;5.93;;
1925;SDS011;964;42.606;23.588;2022-07-03T00:54:51;13.10;;;7.30;;
1925;SDS011;964;42.606;23.588;2022-07-03T00:57:20;9.80;;;7.13;;
1925;SDS011;964;42.606;23.588;2022-07-03T00:59:47;9.83;;;7.03;;
1925;SDS011;964;42.606;23.588;2022-07-03T01:02:17;7.73;;;7.00;;
1925;SDS011;964;42.606;23.588;2022-07-03T01:04:57;7.77;;;6.70;;
1925;SDS011;964;42.606;23.588;2022-07-03T01:07:32;6.93;;;6.30;;
1925;SDS011;964;42.606;23.588;2022-07-03T01:10:04;9.70;;;7.20;;
1925;SDS011;964;42.606;23.588;2022-07-03T01:12:44;11.20;;;7.10;;
1925;SDS011;964;42.606;23.588;2022-07-03T01:15:27;8.63;;;7.10;;
1925;SDS011;964;42.606;23.588;2022-07-03T01:18:03;7.53;;;6.40;;
1925;SDS011;964;42.606;23.588;2022-07-03T01:20:41;8.23;;;7.03;;
1925;SDS011;964;42.606;23.588;2022-07-03T01:23:12;8.07;;;6.63;;
1925;SDS011;964;42.606;23.588;2022-07-03T01:25:52;10.43;;;6.50;;
1925;SDS011;964;42.606;23.588;2022-07-03T01:28:21;7.80;;;6.97;;
1925;SDS011;964;42.606;23.588;2022-07-03T01:30:50;10.80;;;7.23;;
1925;SDS011;964;42.606;23.588;2022-07-03T01:33:19;8.60;;;7.57;;
1925;SDS011;964;42.606;23.588;2022-07-03T01:35:54;7.70;;;6.90;;
1925;SDS011;964;42.606;23.588;2022-07-03T01:38:30;7.00;;;6.30;;
1925;SDS011;964;42.606;23.588;2022-07-03T01:41:00;10.17;;;7.00;;
1925;SDS011;964;42.606;23.588;2022-07-03T01:43:29;7.20;;;6.20;;
1925;SDS011;964;42.606;23.588;2022-07-03T01:45:57;8.47;;;7.03;;
1925;SDS011;964;42.606;23.588;2022-07-03T01:48:25;8.70;;;6.53;;
1925;SDS011;964;42.606;23.588;2022-07-03T01:50:53;9.50;;;6.67;;
1925;SDS011;964;42.606;23.588;2022-07-03T01:53:23;10.30;;;7.47;;
1925;SDS011;964;42.606;23.588;2022-07-03T01:55:52;7.07;;;6.33;;
1925;SDS011;964;42.606;23.588;2022-07-03T01:58:23;7.43;;;6.63;;
1925;SDS011;964;42.606;23.588;2022-07-03T02:01:01;7.97;;;6.07;;
1925;SDS011;964;42.606;23.588;2022-07-03T02:03:33;7.10;;;6.40;;
1925;SDS011;964;42.606;23.588;2022-07-03T02:06:05;8.10;;;7.17;;
1925;SDS011;964;42.606;23.588;2022-07-03T02:08:36;10.93;;;6.20;;
1925;SDS011;964;42.606;23.588;2022-07-03T02:11:10;7.60;;;6.33;;
1925;SDS011;964;42.606;23.588;2022-07-03T02:13:44;6.93;;;6.23;;
1925;SDS011;964;42.606;23.588;2022-07-03T02:16:17;7.97;;;7.17;;
1925;SDS011;964;42.606;23.588;2022-07-03T02:18:47;7.40;;;6.60;;
1925;SDS011;964;42.606;23.588;2022-07-03T02:21:22;7.50;;;6.70;;
1925;SDS011;964;42.606;23.588;2022-07-03T02:23:55;7.63;;;6.83;;
1925;SDS011;964;42.606;23.588;2022-07-03T02:26:33;7.70;;;6.77;;
1925;SDS011;964;42.606;23.588;2022-07-03T02:29:05;7.73;;;7.03;;
1925;SDS011;964;42.606;23.588;2022-07-03T02:31:34;7.93;;;6.33;;
1925;SDS011;964;42.606;23.588;2022-07-03T02:34:06;6.97;;;6.27;;
1925;SDS011;964;42.606;23.588;2022-07-03T02:36:34;6.40;;;5.80;;
1925;SDS011;964;42.606;23.588;2022-07-03T02:39:02;7.20;;;6.47;;
1925;SDS011;964;42.606;23.588;2022-07-03T02:41:37;10.30;;;7.13;;
1925;SDS011;964;42.606;23.588;2022-07-03T02:44:14;8.00;;;7.07;;
1925;SDS011;964;42.606;23.588;2022-07-03T02:46:49;7.00;;;6.37;;
1925;SDS011;964;42.606;23.588;2022-07-03T02:49:33;7.10;;;6.40;;
1925;SDS011;964;42.606;23.588;2022-07-03T02:52:13;7.20;;;6.57;;
1925;SDS011;964;42.606;23.588;2022-07-03T02:54:47;8.30;;;6.23;;
1925;SDS011;964;42.606;23.588;2022-07-03T02:57:16;8.50;;;6.90;;
1925;SDS011;964;42.606;23.588;2022-07-03T02:59:55;7.00;;;6.07;;
1925;SDS011;964;42.606;23.588;2022-07-03T03:02:23;8.50;;;6.70;;
1925;SDS011;964;42.606;23.588;2022-07-03T03:05:03;8.00;;;6.93;;
1925;SDS011;964;42.606;23.588;2022-07-03T03:07:34;11.63;;;7.03;;
1925;SDS011;964;42.606;23.588;2022-07-03T03:10:03;7.50;;;6.40;;
1925;SDS011;964;42.606;23.588;2022-07-03T03:12:31;6.70;;;5.97;;
1925;SDS011;964;42.606;23.588;2022-07-03T03:15:05;7.50;;;6.20;;
1925;SDS011;964;42.606;23.588;2022-07-03T03:17:36;8.73;;;6.73;;
1925;SDS011;964;42.606;23.588;2022-07-03T03:20:07;7.17;;;6.47;;
1925;SDS011;964;42.606;23.588;2022-07-03T03:22:40;14.67;;;6.80;;
1925;SDS011;964;42.606;23.588;2022-07-03T03:25:24;9.20;;;7.83;;
1925;SDS011;964;42.606;23.588;2022-07-03T03:27:51;8.50;;;7.43;;
1925;SDS011;964;42.606;23.588;2022-07-03T03:30:20;7.93;;;6.50;;
1925;SDS011;964;42.606;23.588;2022-07-03T03:32:46;8.60;;;7.77;;
1925;SDS011;964;42.606;23.588;2022-07-03T03:35:13;12.37;;;7.93;;
1925;SDS011;964;42.606;23.588;2022-07-03T03:37:40;7.40;;;6.57;;
1925;SDS011;964;42.606;23.588;2022-07-03T03:40:08;7.40;;;6.40;;
1925;SDS011;964;42.606;23.588;2022-07-03T03:42:35;8.03;;;6.40;;
1925;SDS011;964;42.606;23.588;2022-07-03T03:45:02;7.93;;;7.20;;
1925;SDS011;964;42.606;23.588;2022-07-03T03:47:31;9.23;;;7.40;;
1925;SDS011;964;42.606;23.588;2022-07-03T03:49:57;9.97;;;8.37;;
1925;SDS011;964;42.606;23.588;2022-07-03T03:52:25;8.80;;;7.90;;
1925;SDS011;964;42.606;23.588;2022-07-03T03:54:52;9.87;;;6.90;;
1925;SDS011;964;42.606;23.588;2022-07-03T03:57:19;8.17;;;6.90;;
1925;SDS011;964;42.606;23.588;2022-07-03T03:59:47;7.67;;;6.87;;
1925;SDS011;964;42.606;23.588;2022-07-03T04:02:14;7.50;;;6.80;;
1925;SDS011;964;42.606;23.588;2022-07-03T04:04:42;7.50;;;6.80;;
1925;SDS011;964;42.606;23.588;2022-07-03T04:07:09;8.53;;;7.00;;
1925;SDS011;964;42.606;23.588;2022-07-03T04:09:36;7.60;;;6.60;;
1925;SDS011;964;42.606;23.588;2022-07-03T04:12:03;8.13;;;6.63;;
1925;SDS011;964;42.606;23.588;2022-07-03T04:14:31;7.70;;;7.00;;
1925;SDS011;964;42.606;23.588;2022-07-03T04:16:58;7.30;;;6.60;;
1925;SDS011;964;42.606;23.588;2022-07-03T04:19:24;7.00;;;6.30;;
1925;SDS011;964;42.606;23.588;2022-07-03T04:21:53;12.10;;;6.70;;
1925;SDS011;964;42.606;23.588;2022-07-03T04:24:20;7.97;;;7.17;;
1925;SDS011;964;42.606;23.588;2022-07-03T04:26:46;8.77;;;6.10;;
1925;SDS011;964;42.606;23.588;2022-07-03T04:29:13;7.40;;;6.30;;
1925;SDS011;964;42.606;23.588;2022-07-03T04:31:40;7.97;;;6.70;;
1925;SDS011;964;42.606;23.588;2022-07-03T04:34:07;7.67;;;6.47;;
1925;SDS011;964;42.606;23.588;2022-07-03T04:36:34;8.93;;;6.53;;
1925;SDS011;964;42.606;23.588;2022-07-03T04:39:02;6.87;;;6.27;;
1925;SDS011;964;42.606;23.588;2022-07-03T04:41:29;6.73;;;6.03;;
1925;SDS011;964;42.606;23.588;2022-07-03T04:43:56;8.50;;;7.20;;
1925;SDS011;964;42.606;23.588;2022-07-03T04:46:22;11.60;;;6.80;;
1925;SDS011;964;42.606;23.588;2022-07-03T04:48:49;10.03;;;6.63;;
1925;SDS011;964;42.606;23.588;2022-07-03T04:51:16;7.50;;;5.70;;
1925;SDS011;964;42.606;23.588;2022-07-03T04:53:43;8.77;;;5.97;;
1925;SDS011;964;42.606;23.588;2022-07-03T04:56:11;7.50;;;5.90;;
1925;SDS011;964;42.606;23.588;2022-07-03T04:58:37;7.50;;;6.80;;
1925;SDS011;964;42.606;23.588;2022-07-03T05:01:04;9.70;;;7.40;;
1925;SDS011;964;42.606;23.588;2022-07-03T05:03:31;9.10;;;7.20;;
1925;SDS011;964;42.606;23.588;2022-07-03T05:05:58;10.67;;;7.07;;
1925;SDS011;964;42.606;23.588;2022-07-03T05:08:24;8.17;;;7.47;;
1925;SDS011;964;42.606;23.588;2022-07-03T05:10:51;8.10;;;7.30;;
1925;SDS011;964;42.606;23.588;2022-07-03T05:13:20;7.90;;;7.10;;
1925;SDS011;964;42.606;23.588;2022-07-03T05:15:46;10.83;;;7.87;;
1925;SDS011;964;42.606;23.588;2022-07-03T05:18:13;9.40;;;7.80;;
1925;SDS011;964;42.606;23.588;2022-07-03T05:20:40;9.03;;;7.40;;
1925;SDS011;964;42.606;23.588;2022-07-03T05:23:06;10.83;;;8.60;;
1925;SDS011;964;42.606;23.588;2022-07-03T05:25:33;10.07;;;8.80;;
1925;SDS011;964;42.606;23.588;2022-07-03T05:28:00;9.90;;;8.90;;
1925;SDS011;964;42.606;23.588;2022-07-03T05:30:28;11.30;;;9.37;;
1925;SDS011;964;42.606;23.588;2022-07-03T05:32:55;9.13;;;8.13;;
1925;SDS011;964;42.606;23.588;2022-07-03T05:35:22;9.70;;;8.70;;
1925;SDS011;964;42.606;23.588;2022-07-03T05:37:49;8.87;;;8.07;;
1925;SDS011;964;42.606;23.588;2022-07-03T05:40:16;8.70;;;7.90;;
1925;SDS011;964;42.606;23.588;2022-07-03T05:42:43;10.20;;;8.20;;
1925;SDS011;964;42.606;23.588;2022-07-03T05:45:09;11.10;;;8.73;;
1925;SDS011;964;42.606;23.588;2022-07-03T05:47:38;11.70;;;9.60;;
1925;SDS011;964;42.606;23.588;2022-07-03T05:50:05;9.27;;;8.37;;
1925;SDS011;964;42.606;23.588;2022-07-03T05:52:32;9.60;;;8.00;;
1925;SDS011;964;42.606;23.588;2022-07-03T05:54:59;9.73;;;8.70;;
1925;SDS011;964;42.606;23.588;2022-07-03T05:57:26;19.73;;;10.10;;
1925;SDS011;964;42.606;23.588;2022-07-03T05:59:52;9.30;;;8.27;;
1925;SDS011;964;42.606;23.588;2022-07-03T06:02:19;10.00;;;7.97;;
1925;SDS011;964;42.606;23.588;2022-07-03T06:04:47;10.17;;;8.10;;
1925;SDS011;964;42.606;23.588;2022-07-03T06:07:14;8.40;;;7.60;;
1925;SDS011;964;42.606;23.588;2022-07-03T06:09:41;9.80;;;8.80;;
1925;SDS011;964;42.606;23.588;2022-07-03T06:12:08;8.30;;;7.50;;
1925;SDS011;964;42.606;23.588;2022-07-03T06:14:35;8.17;;;7.40;;
1925;SDS011;964;42.606;23.588;2022-07-03T06:17:02;9.40;;;8.40;;
1925;SDS011;964;42.606;23.588;2022-07-03T06:19:29;11.83;;;8.20;;
1925;SDS011;964;42.606;23.588;2022-07-03T06:21:57;9.37;;;8.43;;
1925;SDS011;964;42.606;23.588;2022-07-03T06:24:24;8.70;;;7.63;;
1925;SDS011;964;42.606;23.588;2022-07-03T06:26:50;9.37;;;8.30;;
1925;SDS011;964;42.606;23.588;2022-07-03T06:29:17;8.80;;;8.00;;
1925;SDS011;964;42.606;23.588;2022-07-03T06:31:44;11.00;;;9.20;;
1925;SDS011;964;42.606;23.588;2022-07-03T06:34:10;9.87;;;8.90;;
1925;SDS011;964;42.606;23.588;2022-07-03T06:36:37;9.60;;;8.60;;
1925;SDS011;964;42.606;23.588;2022-07-03T06:39:05;9.57;;;8.57;;
1925;SDS011;964;42.606;23.588;2022-07-03T06:41:32;8.27;;;7.47;;
1925;SDS011;964;42.606;23.588;2022-07-03T06:43:58;9.60;;;8.70;;
1925;SDS011;964;42.606;23.588;2022-07-03T06:46:25;10.43;;;8.90;;
1925;SDS011;964;42.606;23.588;2022-07-03T06:48:52;9.93;;;8.47;;
1925;SDS011;964;42.606;23.588;2022-07-03T06:51:19;9.50;;;8.40;;
1925;SDS011;964;42.606;23.588;2022-07-03T06:53:45;12.80;;;9.77;;
1925;SDS011;964;42.606;23.588;2022-07-03T06:56:13;9.70;;;8.70;;
1925;SDS011;964;42.606;23.588;2022-07-03T06:58:40;10.40;;;9.30;;
1925;SDS011;964;42.606;23.588;2022-07-03T07:01:07;10.07;;;9.00;;
1925;SDS011;964;42.606;23.588;2022-07-03T07:03:33;9.70;;;8.70;;
1925;SDS011;964;42.606;23.588;2022-07-03T07:06:00;9.30;;;8.00;;
1925;SDS011;964;42.606;23.588;2022-07-03T07:08:27;10.00;;;8.97;;
1925;SDS011;964;42.606;23.588;2022-07-03T07:10:54;8.67;;;7.77;;
1925;SDS011;964;42.606;23.588;2022-07-03T07:13:22;8.80;;;7.90;;
1925;SDS011;964;42.606;23.588;2022-07-03T07:15:48;8.23;;;7.50;;
1925;SDS011;964;42.606;23.588;2022-07-03T07:18:15;10.40;;;9.30;;
1925;SDS011;964;42.606;23.588;2022-07-03T07:20:42;9.77;;;8.77;;
1925;SDS011;964;42.606;23.588;2022-07-03T07:23:08;10.53;;;9.47;;
1925;SDS011;964;42.606;23.588;2022-07-03T07:25:35;10.10;;;8.60;;
1925;SDS011;964;42.606;23.588;2022-07-03T07:28:02;14.63;;;9.23;;
1925;SDS011;964;42.606;23.588;2022-07-03T07:30:30;8.50;;;7.60;;
1925;SDS011;964;42.606;23.588;2022-07-03T07:32:57;8.83;;;8.03;;
1925;SDS011;964;42.606;23.588;2022-07-03T07:35:24;8.53;;;7.60;;
1925;SDS011;964;42.606;23.588;2022-07-03T07:37:50;7.77;;;6.97;;
1925;SDS011;964;42.606;23.588;2022-07-03T07:40:17;8.43;;;6.90;;
1925;SDS011;964;42.606;23.588;2022-07-03T07:42:44;9.87;;;6.80;;
1925;SDS011;964;42.606;23.588;2022-07-03T07:45:11;8.17;;;7.33;;
1925;SDS011;964;42.606;23.588;2022-07-03T07:47:39;7.47;;;6.87;;
1925;SDS011;964;42.606;23.588;2022-07-03T07:50:06;8.40;;;6.30;;
1925;SDS011;964;42.606;23.588;2022-07-03T07:52:33;7.20;;;6.60;;
1925;SDS011;964;42.606;23.588;2022-07-03T07:55:01;7.67;;;6.97;;
1925;SDS011;964;42.606;23.588;2022-07-03T07:57:33;6.70;;;6.10;;
1925;SDS011;964;42.606;23.588;2022-07-03T08:00:04;6.97;;;6.27;;
1925;SDS011;964;42.606;23.588;2022-07-03T08:02:32;6.47;;;5.87;;
1925;SDS011;964;42.606;23.588;2022-07-03T08:05:18;7.07;;;5.90;;
1925;SDS011;964;42.606;23.588;2022-07-03T08:08:04;7.60;;;6.90;;
1925;SDS011;964;42.606;23.588;2022-07-03T08:10:39;6.87;;;6.17;;
1925;SDS011;964;42.606;23.588;2022-07-03T08:13:07;7.13;;;6.43;;
1925;SDS011;964;42.606;23.588;2022-07-03T08:15:34;10.00;;;7.47;;
1925;SDS011;964;42.606;23.588;2022-07-03T08:18:01;7.77;;;6.97;;
1925;SDS011;964;42.606;23.588;2022-07-03T08:20:30;7.00;;;6.03;;
1925;SDS011;964;42.606;23.588;2022-07-03T08:22:58;8.07;;;7.37;;
1925;SDS011;964;42.606;23.588;2022-07-03T08:25:25;6.57;;;5.97;;
1925;SDS011;964;42.606;23.588;2022-07-03T08:27:52;10.50;;;6.97;;
1925;SDS011;964;42.606;23.588;2022-07-03T08:30:19;9.13;;;7.43;;
1925;SDS011;964;42.606;23.588;2022-07-03T08:32:46;7.27;;;6.57;;
1925;SDS011;964;42.606;23.588;2022-07-03T08:35:14;6.77;;;6.17;;
1925;SDS011;964;42.606;23.588;2022-07-03T08:37:42;6.87;;;6.27;;
1925;SDS011;964;42.606;23.588;2022-07-03T08:40:11;7.20;;;6.23;;
1925;SDS011;964;42.606;23.588;2022-07-03T08:42:41;7.47;;;6.77;;
1925;SDS011;964;42.606;23.588;2022-07-03T08:45:12;6.80;;;6.20;;
1925;SDS011;964;42.606;23.588;2022-07-03T08:47:40;5.90;;;5.40;;
1925;SDS011;964;42.606;23.588;2022-07-03T08:50:08;6.70;;;6.00;;
1925;SDS011;964;42.606;23.588;2022-07-03T08:52:38;5.80;;;5.30;;
1925;SDS011;964;42.606;23.588;2022-07-03T08:55:07;6.30;;;5.70;;
1925;SDS011;964;42.606;23.588;2022-07-03T08:57:35;5.83;;;5.33;;
1925;SDS011;964;42.606;23.588;2022-07-03T09:00:04;5.70;;;5.00;;
1925;SDS011;964;42.606;23.588;2022-07-03T09:02:32;5.80;;;5.20;;
1925;SDS011;964;42.606;23.588;2022-07-03T09:05:00;7.83;;;5.87;;
1925;SDS011;964;42.606;23.588;2022-07-03T09:07:28;6.33;;;5.83;;
1925;SDS011;964;42.606;23.588;2022-07-03T09:10:00;6.60;;;6.07;;
1925;SDS011;964;42.606;23.588;2022-07-03T09:12:30;6.77;;;6.17;;
1925;SDS011;964;42.606;23.588;2022-07-03T09:14:58;9.20;;;5.30;;
1925;SDS011;964;42.606;23.588;2022-07-03T09:17:24;5.07;;;4.67;;
1925;SDS011;964;42.606;23.588;2022-07-03T09:19:52;5.97;;;5.20;;
1925;SDS011;964;42.606;23.588;2022-07-03T09:22:20;5.23;;;4.50;;
1925;SDS011;964;42.606;23.588;2022-07-03T09:24:48;4.70;;;4.30;;
1925;SDS011;964;42.606;23.588;2022-07-03T09:27:16;8.10;;;4.37;;
1925;SDS011;964;42.606;23.588;2022-07-03T09:29:58;4.60;;;4.10;;
1925;SDS011;964;42.606;23.588;2022-07-03T09:32:25;4.50;;;4.10;;
1925;SDS011;964;42.606;23.588;2022-07-03T09:35:12;5.30;;;4.80;;
1925;SDS011;964;42.606;23.588;2022-07-03T09:37:50;4.60;;;4.20;;
1925;SDS011;964;42.606;23.588;2022-07-03T09:40:19;4.13;;;3.83;;
1925;SDS011;964;42.606;23.588;2022-07-03T09:42:56;5.23;;;4.73;;
1925;SDS011;964;42.606;23.588;2022-07-03T09:45:25;6.23;;;5.07;;
1925;SDS011;964;42.606;23.588;2022-07-03T09:47:53;5.20;;;4.40;;
1925;SDS011;964;42.606;23.588;2022-07-03T09:50:19;5.37;;;4.90;;
1925;SDS011;964;42.606;23.588;2022-07-03T09:52:47;4.47;;;4.18;;
1925;SDS011;964;42.606;23.588;2022-07-03T09:55:17;4.80;;;4.40;;
1925;SDS011;964;42.606;23.588;2022-07-03T09:57:45;5.20;;;4.70;;
1925;SDS011;964;42.606;23.588;2022-07-03T10:00:26;5.40;;;4.90;;
1925;SDS011;964;42.606;23.588;2022-07-03T10:02:54;6.10;;;5.33;;
1925;SDS011;964;42.606;23.588;2022-07-03T10:05:23;5.03;;;4.53;;
1925;SDS011;964;42.606;23.588;2022-07-03T10:07:52;7.80;;;4.87;;
1925;SDS011;964;42.606;23.588;2022-07-03T10:10:21;5.00;;;4.60;;
1925;SDS011;964;42.606;23.588;2022-07-03T10:12:49;5.30;;;4.80;;
1925;SDS011;964;42.606;23.588;2022-07-03T10:15:17;4.40;;;4.00;;
1925;SDS011;964;42.606;23.588;2022-07-03T10:17:48;8.80;;;5.10;;
1925;SDS011;964;42.606;23.588;2022-07-03T10:20:19;5.20;;;4.80;;
1925;SDS011;964;42.606;23.588;2022-07-03T10:22:50;5.87;;;5.37;;
1925;SDS011;964;42.606;23.588;2022-07-03T10:25:18;5.10;;;4.70;;
1925;SDS011;964;42.606;23.588;2022-07-03T10:27:45;5.47;;;4.97;;
1925;SDS011;964;42.606;23.588;2022-07-03T10:30:13;8.93;;;4.80;;
1925;SDS011;964;42.606;23.588;2022-07-03T10:32:42;4.80;;;4.40;;
1925;SDS011;964;42.606;23.588;2022-07-03T10:35:12;5.33;;;4.87;;
1925;SDS011;964;42.606;23.588;2022-07-03T10:37:43;4.60;;;4.20;;
1925;SDS011;964;42.606;23.588;2022-07-03T10:40:27;6.07;;;5.57;;
1925;SDS011;964;42.606;23.588;2022-07-03T10:43:21;4.90;;;4.50;;
1925;SDS011;964;42.606;23.588;2022-07-03T10:46:10;5.67;;;5.20;;
1925;SDS011;964;42.606;23.588;2022-07-03T10:51:50;5.57;;;4.72;;
1925;SDS011;964;42.606;23.588;2022-07-03T10:54:19;5.50;;;5.00;;
1925;SDS011;964;42.606;23.588;2022-07-03T11:02:49;5.80;;;5.20;;
1925;SDS011;964;42.606;23.588;2022-07-03T11:05:21;5.47;;;4.80;;
1925;SDS011;964;42.606;23.588;2022-07-03T11:08:09;10.30;;;4.80;;
1925;SDS011;964;42.606;23.588;2022-07-03T11:10:38;6.50;;;5.20;;
1925;SDS011;964;42.606;23.588;2022-07-03T11:13:17;5.35;;;4.85;;
1925;SDS011;964;42.606;23.588;2022-07-03T11:15:48;4.90;;;4.50;;
1925;SDS011;964;42.606;23.588;2022-07-03T11:18:17;5.57;;;4.50;;
1925;SDS011;964;42.606;23.588;2022-07-03T11:23:49;5.30;;;4.90;;
1925;SDS011;964;42.606;23.588;2022-07-03T11:26:37;4.95;;;4.55;;
1925;SDS011;964;42.606;23.588;2022-07-03T11:29:04;4.82;;;4.35;;
1925;SDS011;964;42.606;23.588;2022-07-03T11:31:30;5.78;;;5.28;;
1925;SDS011;964;42.606;23.588;2022-07-03T11:33:57;4.93;;;4.53;;
1925;SDS011;964;42.606;23.588;2022-07-03T11:36:25;5.13;;;4.72;;
1925;SDS011;964;42.606;23.588;2022-07-03T11:39:03;4.50;;;4.10;;
1925;SDS011;964;42.606;23.588;2022-07-03T11:41:42;4.47;;;4.07;;
1925;SDS011;964;42.606;23.588;2022-07-03T11:44:13;4.03;;;3.72;;
1925;SDS011;964;42.606;23.588;2022-07-03T11:46:45;4.22;;;3.92;;
1925;SDS011;964;42.606;23.588;2022-07-03T11:49:14;4.40;;;4.10;;
1925;SDS011;964;42.606;23.588;2022-07-03T11:51:43;10.75;;;4.32;;
1925;SDS011;964;42.606;23.588;2022-07-03T11:54:21;8.38;;;4.95;;
1925;SDS011;964;42.606;23.588;2022-07-03T11:56:47;4.03;;;3.72;;
1925;SDS011;964;42.606;23.588;2022-07-03T11:59:14;5.55;;;4.50;;
1925;SDS011;964;42.606;23.588;2022-07-03T12:01:41;4.13;;;3.83;;
1925;SDS011;964;42.606;23.588;2022-07-03T12:04:09;4.30;;;4.00;;
1925;SDS011;964;42.606;23.588;2022-07-03T12:06:38;4.53;;;4.13;;
1925;SDS011;964;42.606;23.588;2022-07-03T12:09:16;4.80;;;4.40;;
1925;SDS011;964;42.606;23.588;2022-07-03T12:11:56;4.75;;;4.35;;
1925;SDS011;964;42.606;23.588;2022-07-03T12:14:41;4.93;;;4.53;;
1925;SDS011;964;42.606;23.588;2022-07-03T12:17:10;5.18;;;4.68;;
1925;SDS011;964;42.606;23.588;2022-07-03T12:19:43;5.03;;;4.63;;
1925;SDS011;964;42.606;23.588;2022-07-03T12:22:11;7.22;;;4.80;;
1925;SDS011;964;42.606;23.588;2022-07-03T12:24:37;4.50;;;4.10;;
1925;SDS011;964;42.606;23.588;2022-07-03T12:27:06;5.63;;;5.13;;
1925;SDS011;964;42.606;23.588;2022-07-03T12:29:33;4.63;;;4.22;;
1925;SDS011;964;42.606;23.588;2022-07-03T12:32:01;4.65;;;4.32;;
1925;SDS011;964;42.606;23.588;2022-07-03T12:34:35;5.40;;;5.00;;
1925;SDS011;964;42.606;23.588;2022-07-03T12:37:03;5.73;;;5.23;;
1925;SDS011;964;42.606;23.588;2022-07-03T12:39:42;5.13;;;4.70;;
1925;SDS011;964;42.606;23.588;2022-07-03T12:42:15;5.50;;;5.00;;
1925;SDS011;964;42.606;23.588;2022-07-03T12:44:55;6.00;;;5.43;;
1925;SDS011;964;42.606;23.588;2022-07-03T12:47:23;6.17;;;5.63;;
1925;SDS011;964;42.606;23.588;2022-07-03T12:49:54;5.67;;;5.17;;
1925;SDS011;964;42.606;23.588;2022-07-03T12:52:22;5.93;;;5.37;;
1925;SDS011;964;42.606;23.588;2022-07-03T12:54:49;7.33;;;5.50;;
1925;SDS011;964;42.606;23.588;2022-07-03T12:57:17;7.10;;;5.70;;
1925;SDS011;964;42.606;23.588;2022-07-03T13:00:03;6.13;;;5.60;;
1925;SDS011;964;42.606;23.588;2022-07-03T13:02:31;5.77;;;5.27;;
1925;SDS011;964;42.606;23.588;2022-07-03T13:04:58;7.03;;;5.38;;
1925;SDS011;964;42.606;23.588;2022-07-03T13:07:27;6.83;;;5.63;;
1925;SDS011;964;42.606;23.588;2022-07-03T13:09:55;7.90;;;5.37;;
1925;SDS011;964;42.606;23.588;2022-07-03T13:12:27;6.83;;;5.43;;
1925;SDS011;964;42.606;23.588;2022-07-03T13:14:57;7.13;;;5.57;;
1925;SDS011;964;42.606;23.588;2022-07-03T13:17:24;6.40;;;5.10;;
1925;SDS011;964;42.606;23.588;2022-07-03T13:20:16;6.80;;;6.10;;
1925;SDS011;964;42.606;23.588;2022-07-03T13:22:43;6.85;;;5.63;;
1925;SDS011;964;42.606;23.588;2022-07-03T13:25:10;5.90;;;5.40;;
1925;SDS011;964;42.606;23.588;2022-07-03T13:27:38;6.07;;;5.57;;
1925;SDS011;964;42.606;23.588;2022-07-03T13:30:05;5.07;;;4.63;;
1925;SDS011;964;42.606;23.588;2022-07-03T13:32:32;6.60;;;5.20;;
1925;SDS011;964;42.606;23.588;2022-07-03T13:34:59;5.95;;;5.40;;
1925;SDS011;964;42.606;23.588;2022-07-03T13:37:26;6.28;;;5.68;;
1925;SDS011;964;42.606;23.588;2022-07-03T13:39:52;5.95;;;5.45;;
1925;SDS011;964;42.606;23.588;2022-07-03T13:42:19;6.50;;;6.00;;
1925;SDS011;964;42.606;23.588;2022-07-03T13:44:47;5.90;;;5.50;;
1925;SDS011;964;42.606;23.588;2022-07-03T13:47:15;8.70;;;5.93;;
1925;SDS011;964;42.606;23.588;2022-07-03T13:49:41;7.07;;;5.37;;
1925;SDS011;964;42.606;23.588;2022-07-03T13:52:08;9.90;;;6.37;;
1925;SDS011;964;42.606;23.588;2022-07-03T13:54:35;6.60;;;6.00;;
1925;SDS011;964;42.606;23.588;2022-07-03T13:57:02;6.77;;;6.20;;
1925;SDS011;964;42.606;23.588;2022-07-03T13:59:30;6.53;;;5.20;;
1925;SDS011;964;42.606;23.588;2022-07-03T14:01:58;6.40;;;5.90;;
1925;SDS011;964;42.606;23.588;2022-07-03T14:04:25;6.20;;;5.60;;
1925;SDS011;964;42.606;23.588;2022-07-03T14:06:51;5.73;;;5.23;;
1925;SDS011;964;42.606;23.588;2022-07-03T14:09:18;6.70;;;6.20;;
1925;SDS011;964;42.606;23.588;2022-07-03T14:11:45;6.30;;;5.70;;
1925;SDS011;964;42.606;23.588;2022-07-03T14:14:12;7.07;;;6.07;;
1925;SDS011;964;42.606;23.588;2022-07-03T14:16:39;6.50;;;5.93;;
1925;SDS011;964;42.606;23.588;2022-07-03T14:19:07;10.83;;;5.53;;
1925;SDS011;964;42.606;23.588;2022-07-03T14:21:34;7.03;;;6.33;;
1925;SDS011;964;42.606;23.588;2022-07-03T14:24:01;5.83;;;5.23;;
1925;SDS011;964;42.606;23.588;2022-07-03T14:26:27;6.07;;;5.57;;
1925;SDS011;964;42.606;23.588;2022-07-03T14:29:11;6.47;;;5.73;;
1925;SDS011;964;42.606;23.588;2022-07-03T14:31:56;7.57;;;6.00;;
1925;SDS011;964;42.606;23.588;2022-07-03T14:34:41;6.00;;;5.40;;
1925;SDS011;964;42.606;23.588;2022-07-03T14:37:08;5.90;;;5.30;;
1925;SDS011;964;42.606;23.588;2022-07-03T14:39:35;5.83;;;5.33;;
1925;SDS011;964;42.606;23.588;2022-07-03T14:42:02;7.07;;;5.57;;
1925;SDS011;964;42.606;23.588;2022-07-03T14:44:29;5.40;;;4.90;;
1925;SDS011;964;42.606;23.588;2022-07-03T14:46:56;5.60;;;5.20;;
1925;SDS011;964;42.606;23.588;2022-07-03T14:49:23;5.93;;;5.33;;
1925;SDS011;964;42.606;23.588;2022-07-03T14:51:51;6.70;;;6.10;;
1925;SDS011;964;42.606;23.588;2022-07-03T14:54:18;6.03;;;5.33;;
1925;SDS011;964;42.606;23.588;2022-07-03T14:56:48;5.17;;;4.77;;
1925;SDS011;964;42.606;23.588;2022-07-03T14:59:19;5.90;;;5.40;;
1925;SDS011;964;42.606;23.588;2022-07-03T15:01:54;6.23;;;5.67;;
1925;SDS011;964;42.606;23.588;2022-07-03T15:04:25;5.30;;;4.80;;
1925;SDS011;964;42.606;23.588;2022-07-03T15:07:08;5.80;;;5.37;;
1925;SDS011;964;42.606;23.588;2022-07-03T15:09:37;8.00;;;6.07;;
1925;SDS011;964;42.606;23.588;2022-07-03T15:12:10;6.30;;;5.80;;
1925;SDS011;964;42.606;23.588;2022-07-03T15:14:55;5.80;;;5.30;;
1925;SDS011;964;42.606;23.588;2022-07-03T15:17:24;7.50;;;5.20;;
1925;SDS011;964;42.606;23.588;2022-07-03T15:19:51;6.00;;;5.50;;
1925;SDS011;964;42.606;23.588;2022-07-03T15:22:20;5.83;;;5.33;;
1925;SDS011;964;42.606;23.588;2022-07-03T15:24:49;8.50;;;4.70;;
1925;SDS011;964;42.606;23.588;2022-07-03T15:27:18;6.27;;;5.77;;
1925;SDS011;964;42.606;23.588;2022-07-03T15:29:46;9.80;;;6.47;;
1925;SDS011;964;42.606;23.588;2022-07-03T15:32:13;7.80;;;6.10;;
1925;SDS011;964;42.606;23.588;2022-07-03T15:34:41;7.23;;;6.20;;
1925;SDS011;964;42.606;23.588;2022-07-03T15:37:09;5.67;;;5.17;;
1925;SDS011;964;42.606;23.588;2022-07-03T15:39:48;6.33;;;5.73;;
1925;SDS011;964;42.606;23.588;2022-07-03T15:42:22;5.80;;;5.30;;